Time;durP1;ratioP1;P1;durP2;ratioP2;P2;SDS_P1;SDS_P2;PMS_P1;PMS_P2;Temp;Humidity;BMP_temperature;BMP_pressure;BME280_temperature;BME280_humidity;BME280_pressure;Samples;Min_cycle;Max_cycle;Signal;HPM_P1;HPM_P2
2023/02/13 00:02:20;;;;;;;22.27;16.95;;;;;;;11.22;63.56;102399.91;4994515;28;20458;-61
2023/02/13 00:04:49;;;;;;;20.75;16.42;;;;;;;11.28;63.42;102396.88;4994586;28;20479;-60
2023/02/13 00:07:16;;;;;;;21.30;16.67;;;;;;;11.23;63.42;102391.25;4995232;28;20514;-61
2023/02/13 00:09:43;;;;;;;19.98;15.52;;;;;;;11.23;63.26;102398.78;4991675;28;20054;-60
2023/02/13 00:12:10;;;;;;;19.85;16.08;;;;;;;11.21;63.40;102395.44;4995237;28;20054;-61
2023/02/13 00:14:39;;;;;;;21.58;17.15;;;;;;;11.21;63.62;102395.44;4994814;28;20058;-62
2023/02/13 00:17:06;;;;;;;22.77;16.30;;;;;;;11.20;63.79;102394.59;4994188;28;20070;-61
2023/02/13 00:19:34;;;;;;;23.13;17.67;;;;;;;11.20;63.63;102394.59;4994054;28;20085;-61
2023/02/13 00:22:02;;;;;;;22.40;16.45;;;;;;;11.20;63.55;102386.22;4994772;28;20514;-61
2023/02/13 00:24:30;;;;;;;20.95;16.42;;;;;;;11.22;63.34;102386.78;4994285;28;20050;-61
2023/02/13 00:26:58;;;;;;;22.23;16.48;;;;;;;11.20;63.31;102383.44;4994851;28;20085;-61
2023/02/13 00:29:25;;;;;;;20.45;16.40;;;;;;;11.18;63.38;102378.13;4993858;28;20050;-62
2023/02/13 00:31:53;;;;;;;21.10;16.48;;;;;;;11.13;63.52;102374.50;4993756;28;20586;-61
2023/02/13 00:34:20;;;;;;;16.70;12.20;;;;;;;11.08;63.58;102378.06;4994405;28;20057;-61
2023/02/13 00:36:47;;;;;;;15.75;12.50;;;;;;;11.18;63.53;102380.06;4994711;28;20050;-61
2023/02/13 00:39:16;;;;;;;14.32;12.32;;;;;;;11.17;63.43;102375.59;4994512;28;20046;-61
2023/02/13 00:41:43;;;;;;;14.88;11.90;;;;;;;11.19;63.45;102373.38;4993753;28;20146;-60
2023/02/13 00:44:10;;;;;;;15.48;12.43;;;;;;;11.22;63.63;102375.63;4994430;28;20387;-62
2023/02/13 00:46:38;;;;;;;13.70;10.80;;;;;;;11.23;63.60;102368.09;4992733;28;20061;-61
2023/02/13 00:49:05;;;;;;;14.00;10.18;;;;;;;11.24;63.24;102376.19;4994112;28;20051;-61
2023/02/13 00:51:33;;;;;;;15.05;11.00;;;;;;;11.23;62.97;102368.94;4993213;28;20061;-61
2023/02/13 00:54:00;;;;;;;12.10;9.15;;;;;;;11.23;63.01;102366.13;4993848;28;20054;-61
2023/02/13 00:56:29;;;;;;;11.20;9.00;;;;;;;11.20;63.14;102363.06;4994252;28;20081;-61
2023/02/13 00:58:56;;;;;;;11.98;9.13;;;;;;;11.25;62.07;102374.25;4994115;28;20054;-61
2023/02/13 01:01:27;;;;;;;10.68;8.50;;;;;;;11.20;62.35;102368.66;4991313;28;20470;-61
2023/02/13 01:03:54;;;;;;;9.38;7.45;;;;;;;11.12;62.42;102370.84;4990563;28;20375;-61
2023/02/13 01:06:24;;;;;;;8.90;6.70;;;;;;;11.03;62.65;102366.06;4993839;28;20376;-61
2023/02/13 01:08:51;;;;;;;9.43;6.75;;;;;;;11.04;62.45;102370.53;4993689;28;20123;-62
2023/02/13 01:11:21;;;;;;;9.13;6.25;;;;;;;10.96;62.39;102372.72;4994006;28;20054;-61
2023/02/13 01:13:49;;;;;;;7.35;6.05;;;;;;;10.88;62.68;102381.59;4992782;28;20147;-61
2023/02/13 01:16:17;;;;;;;6.65;5.45;;;;;;;10.87;62.34;102368.75;4991929;28;20058;-61
2023/02/13 01:18:44;;;;;;;7.07;5.40;;;;;;;10.81;62.50;102375.41;4993912;28;20062;-61
2023/02/13 01:21:17;;;;;;;6.97;5.50;;;;;;;10.81;62.67;102378.19;4993409;28;20050;-61
2023/02/13 01:23:44;;;;;;;6.72;5.50;;;;;;;10.84;61.77;102379.63;4992919;28;20050;-60
2023/02/13 01:26:20;;;;;;;6.20;5.40;;;;;;;10.79;62.24;102372.03;4993548;28;20058;-60
2023/02/13 01:28:52;;;;;;;6.05;4.90;;;;;;;10.82;61.89;102379.88;4993650;28;20058;-60
2023/02/13 01:31:20;;;;;;;6.72;5.03;;;;;;;10.82;62.45;102371.53;4991729;28;20050;-61
2023/02/13 01:33:47;;;;;;;6.03;4.78;;;;;;;10.87;62.56;102382.69;4993799;28;20062;-61
2023/02/13 01:36:15;;;;;;;6.32;4.95;;;;;;;10.85;62.08;102378.50;4993600;28;20065;-61
2023/02/13 01:38:42;;;;;;;6.22;4.72;;;;;;;10.76;61.84;102378.16;4993715;28;20050;-61
2023/02/13 01:41:10;;;;;;;5.88;4.68;;;;;;;10.79;61.82;102371.22;4992508;28;20054;-61
2023/02/13 01:43:47;;;;;;;6.28;4.63;;;;;;;10.88;62.18;102373.22;4993185;28;20061;-61
2023/02/13 01:46:19;;;;;;;5.28;4.07;;;;;;;10.91;62.24;102371.84;4991420;28;20058;-61
2023/02/13 01:48:48;;;;;;;5.53;4.10;;;;;;;10.91;61.96;102372.69;4993056;28;20499;-61
2023/02/13 01:51:20;;;;;;;5.60;4.13;;;;;;;10.93;61.51;102369.63;4991962;28;20055;-61
2023/02/13 01:53:53;;;;;;;6.68;4.78;;;;;;;10.93;61.65;102373.25;4993192;28;20973;-61
2023/02/13 01:56:25;;;;;;;8.27;5.47;;;;;;;10.87;61.71;102368.75;4993058;28;20093;-61
2023/02/13 01:58:56;;;;;;;7.07;4.60;;;;;;;10.87;62.26;102367.91;4991652;28;20495;-61
2023/02/13 02:01:26;;;;;;;5.72;4.50;;;;;;;10.89;62.21;102371.28;4991513;28;20058;-61
2023/02/13 02:03:58;;;;;;;5.38;4.07;;;;;;;10.81;62.31;102369.00;4992632;28;20058;-61
2023/02/13 02:06:36;;;;;;;5.38;4.30;;;;;;;10.83;62.40;102362.03;4992681;28;20506;-61
2023/02/13 02:09:10;;;;;;;6.25;4.60;;;;;;;10.82;62.71;102368.72;4992064;28;20066;-61
2023/02/13 02:11:44;;;;;;;5.43;4.13;;;;;;;10.84;62.20;102363.72;4993019;28;20078;-61
2023/02/13 02:14:11;;;;;;;6.55;4.55;;;;;;;10.82;62.50;102359.53;4992793;28;20061;-61
2023/02/13 02:16:40;;;;;;;4.68;3.75;;;;;;;10.86;62.03;102355.94;4990950;28;20409;-62
2023/02/13 02:19:15;;;;;;;4.82;3.90;;;;;;;10.84;62.20;102351.75;4993032;28;20434;-60
2023/02/13 02:22:12;;;;;;;5.35;4.10;;;;;;;10.82;62.50;102351.19;4992729;28;20475;-61
2023/02/13 02:25:40;;;;;;;4.93;3.67;;;;;;;10.70;61.93;102357.78;4992424;28;20065;-61
2023/02/13 02:28:38;;;;;;;5.43;3.90;;;;;;;10.73;62.08;102356.38;4973554;28;20058;-61
2023/02/13 02:31:39;;;;;;;5.25;3.72;;;;;;;10.69;62.41;102355.28;4974680;28;20786;-61
2023/02/13 02:34:18;;;;;;;6.47;4.38;;;;;;;10.67;61.86;102358.34;4949262;28;20388;-61
2023/02/13 02:36:57;;;;;;;5.37;4.17;;;;;;;10.67;62.26;102352.75;4981726;28;20058;-61
2023/02/13 02:39:38;;;;;;;5.78;4.45;;;;;;;10.73;62.36;102345.25;4993102;28;20062;-61
2023/02/13 02:42:18;;;;;;;6.35;5.10;;;;;;;10.56;62.46;102346.28;4992898;28;20046;-61
2023/02/13 02:44:55;;;;;;;5.78;4.72;;;;;;;10.61;62.52;102347.41;4993144;28;20054;-61
2023/02/13 02:50:37;;;;;;;5.35;4.38;;;;;;;10.60;62.24;102351.31;4998583;28;20062;-61
2023/02/13 02:53:29;;;;;;;5.03;4.38;;;;;;;10.63;62.36;102345.22;4992850;28;20062;-61
2023/02/13 02:56:04;;;;;;;5.57;4.43;;;;;;;10.62;62.32;102351.88;4991048;28;20054;-61
2023/02/13 03:07:07;;;;;;;4.90;4.32;;;;;;;10.47;61.94;102336.72;4995183;28;20061;-62
2023/02/13 03:15:10;;;;;;;4.30;3.85;;;;;;;10.28;62.55;102344.63;4998703;28;20454;-63
2023/02/13 03:23:30;;;;;;;4.25;3.75;;;;;;;10.10;62.06;102342.25;4994084;28;20077;-62
2023/02/13 03:26:13;;;;;;;4.80;4.15;;;;;;;10.00;62.97;102339.41;4975832;28;20050;-62
2023/02/13 03:31:48;;;;;;;5.95;4.75;;;;;;;9.98;61.95;102356.34;4981179;28;20058;-62
2023/02/13 03:34:20;;;;;;;4.75;4.00;;;;;;;9.94;61.89;102346.84;4976098;28;20051;-62
2023/02/13 03:39:47;;;;;;;4.75;3.65;;;;;;;9.84;62.87;102357.88;4982286;28;20507;-61
2023/02/13 03:42:21;;;;;;;4.70;3.67;;;;;;;9.74;62.66;102355.81;4982900;28;20058;-64
2023/02/13 03:47:37;;;;;;;4.50;3.70;;;;;;;9.95;63.54;102351.31;4992940;28;20050;-63
2023/02/13 03:50:07;;;;;;;4.60;3.67;;;;;;;9.98;62.79;102356.34;4995202;28;20050;-64
2023/02/13 03:52:45;;;;;;;5.20;3.85;;;;;;;9.92;63.15;102366.59;4994585;28;20069;-63
2023/02/13 04:00:57;;;;;;;4.88;3.88;;;;;;;9.99;63.31;102366.38;4998816;28;20061;-64
2023/02/13 04:03:29;;;;;;;4.00;3.60;;;;;;;9.95;63.16;102363.31;4993297;28;20069;-63
2023/02/13 04:06:04;;;;;;;4.78;4.28;;;;;;;9.88;63.02;102364.59;4995071;28;20479;-63
2023/02/13 04:08:31;;;;;;;4.95;3.78;;;;;;;9.84;63.52;102366.25;4994696;28;20054;-63
2023/02/13 04:11:09;;;;;;;4.53;3.75;;;;;;;9.80;63.21;102359.50;4994062;28;20054;-63
2023/02/13 04:13:43;;;;;;;5.93;3.90;;;;;;;9.89;64.42;102369.91;4994993;28;20054;-63
2023/02/13 04:16:15;;;;;;;5.53;3.83;;;;;;;9.85;63.97;102357.63;4995119;28;20054;-63
2023/02/13 04:18:43;;;;;;;4.45;3.70;;;;;;;9.88;63.23;102361.81;4992911;28;20054;-64
2023/02/13 04:21:11;;;;;;;4.25;3.85;;;;;;;9.98;63.61;102359.13;4994724;28;20053;-63
2023/02/13 04:23:39;;;;;;;4.50;3.90;;;;;;;9.98;63.65;102361.94;4994827;28;20061;-63
2023/02/13 04:26:15;;;;;;;5.28;4.00;;;;;;;9.99;63.65;102360.81;4994318;28;20069;-62
2023/02/13 04:28:42;;;;;;;5.00;3.95;;;;;;;10.06;63.88;102357.84;4994009;28;20054;-63
2023/02/13 04:31:09;;;;;;;4.70;3.67;;;;;;;10.01;63.61;102349.41;4994634;28;20054;-64
2023/02/13 04:33:37;;;;;;;6.75;3.90;;;;;;;10.03;63.69;102352.78;4993023;28;20054;-63
2023/02/13 04:36:04;;;;;;;6.25;3.88;;;;;;;10.01;64.01;102360.56;4991959;28;20050;-63
2023/02/13 04:38:32;;;;;;;4.65;4.10;;;;;;;9.94;63.29;102356.03;4994557;28;20059;-64
2023/02/13 04:40:59;;;;;;;6.50;4.65;;;;;;;9.92;63.29;102355.47;4994324;28;20057;-63
2023/02/13 04:43:27;;;;;;;5.95;4.75;;;;;;;9.97;64.40;102354.66;4994352;28;20054;-63
2023/02/13 04:45:55;;;;;;;7.05;5.03;;;;;;;10.03;62.96;102353.59;4993400;28;20498;-62
2023/02/13 04:48:22;;;;;;;7.95;5.15;;;;;;;9.94;63.60;102355.22;4992512;28;20066;-62
2023/02/13 04:50:49;;;;;;;6.90;5.22;;;;;;;9.87;64.30;102352.66;4993950;28;20051;-63
2023/02/13 04:53:16;;;;;;;6.82;4.70;;;;;;;9.89;63.47;102356.00;4994267;28;20065;-63
2023/02/13 04:55:44;;;;;;;6.78;4.97;;;;;;;9.79;64.87;102349.50;4993378;28;20058;-63
2023/02/13 04:58:12;;;;;;;7.00;5.15;;;;;;;9.93;64.29;102336.81;4994510;28;20059;-63
2023/02/13 05:00:43;;;;;;;8.13;5.63;;;;;;;9.88;64.77;102342.34;4993762;28;20046;-63
2023/02/13 05:03:12;;;;;;;7.38;5.60;;;;;;;9.79;64.95;102341.97;4992257;28;20042;-63
2023/02/13 05:05:40;;;;;;;8.75;5.75;;;;;;;9.68;65.10;102342.97;4994034;28;20057;-62
2023/02/13 05:08:08;;;;;;;8.00;6.03;;;;;;;9.82;65.36;102346.19;4993821;28;20066;-63
2023/02/13 05:10:36;;;;;;;9.15;6.78;;;;;;;9.81;65.38;102345.34;4994120;28;20426;-63
2023/02/13 05:13:03;;;;;;;8.35;5.72;;;;;;;9.83;64.72;102340.34;4993244;28;20537;-63
2023/02/13 05:15:31;;;;;;;8.48;5.65;;;;;;;9.92;65.01;102349.91;4994100;28;20054;-64
2023/02/13 05:17:59;;;;;;;7.70;5.50;;;;;;;9.92;65.15;102352.69;4992756;28;20054;-63
2023/02/13 05:20:27;;;;;;;9.48;6.18;;;;;;;9.91;64.92;102341.78;4991806;28;20062;-64
2023/02/13 05:25:41;;;;;;;7.93;5.70;;;;;;;10.06;64.07;102341.97;4993141;28;20537;-62
2023/02/13 05:29:17;;;;;;;7.17;5.60;;;;;;;10.09;63.58;102355.34;4991719;28;20050;-64
2023/02/13 05:30:56;;;;;;;6.72;5.40;;;;;;;10.12;64.58;102345.59;4993120;28;20505;-63
2023/02/13 05:33:25;;;;;;;7.70;5.28;;;;;;;10.12;63.52;102340.91;4992541;28;20435;-63
2023/02/13 05:35:52;;;;;;;7.85;5.28;;;;;;;10.05;64.02;102339.44;4993301;28;20058;-63
2023/02/13 05:38:20;;;;;;;7.72;4.93;;;;;;;10.11;63.74;102343.94;4993479;28;20054;-63
2023/02/13 05:40:47;;;;;;;6.93;4.97;;;;;;;10.04;64.35;102338.59;4992855;28;20061;-63
2023/02/13 05:43:17;;;;;;;7.40;5.20;;;;;;;10.02;63.54;102338.03;4992438;28;20487;-63
2023/02/13 05:45:44;;;;;;;7.00;5.00;;;;;;;10.05;64.44;102340.25;4993164;28;20058;-63
2023/02/13 05:48:12;;;;;;;7.13;5.25;;;;;;;10.08;63.28;102333.31;4993075;28;20065;-63
2023/02/13 05:50:40;;;;;;;7.00;5.07;;;;;;;9.89;63.64;102324.53;4990497;28;20054;-63
2023/02/13 05:53:08;;;;;;;6.45;4.78;;;;;;;9.96;64.22;102336.28;4992248;28;20410;-63
2023/02/13 05:55:35;;;;;;;7.35;5.43;;;;;;;9.86;64.27;102328.69;4993201;28;20057;-62
2023/02/13 05:58:02;;;;;;;8.40;5.30;;;;;;;9.80;64.80;102326.94;4993097;28;20065;-62
2023/02/13 06:00:29;;;;;;;5.93;4.45;;;;;;;9.69;63.86;102331.56;4984829;28;20054;-62
2023/02/13 06:02:56;;;;;;;8.70;5.97;;;;;;;9.48;64.99;102326.91;4993117;28;20055;-62
2023/02/13 06:05:24;;;;;;;8.25;5.93;;;;;;;9.28;64.57;102333.94;4991570;28;20506;-62
2023/02/13 06:07:52;;;;;;;7.15;5.53;;;;;;;9.21;65.66;102340.78;4991922;28;20051;-63
2023/02/13 06:10:20;;;;;;;7.30;5.10;;;;;;;9.16;65.54;102329.59;4985271;28;20050;-63
2023/02/13 06:12:47;;;;;;;9.55;5.55;;;;;;;9.05;65.97;102336.94;4992566;28;20073;-62
2023/02/13 06:15:14;;;;;;;8.00;5.20;;;;;;;8.92;65.77;102339.03;4990616;28;20054;-62
2023/02/13 06:17:41;;;;;;;8.25;6.00;;;;;;;8.86;65.92;102339.19;4991833;28;20063;-62
2023/02/13 06:20:12;;;;;;;6.57;5.00;;;;;;;8.78;65.26;102336.88;4982661;28;20055;-63
2023/02/13 06:22:39;;;;;;;7.47;5.35;;;;;;;8.72;65.87;102336.81;4984793;28;20388;-63
2023/02/13 06:25:08;;;;;;;8.77;5.32;;;;;;;8.69;65.94;102344.81;4991140;28;20054;-62
2023/02/13 06:27:35;;;;;;;6.13;4.53;;;;;;;8.58;65.23;102343.81;4989715;28;20054;-62
2023/02/13 06:30:03;;;;;;;6.78;4.68;;;;;;;8.51;66.21;102344.00;4989444;28;20057;-62
2023/02/13 06:32:30;;;;;;;7.72;5.30;;;;;;;8.43;65.86;102347.19;4991815;28;20046;-63
2023/02/13 06:34:57;;;;;;;7.40;5.28;;;;;;;8.30;65.73;102350.31;4990232;28;20494;-64
2023/02/13 06:37:24;;;;;;;7.95;5.35;;;;;;;8.23;65.75;102341.28;4991259;28;20065;-64
2023/02/13 06:39:51;;;;;;;7.40;5.07;;;;;;;8.12;64.69;102346.66;4984670;28;20061;-63
2023/02/13 06:42:20;;;;;;;6.78;5.13;;;;;;;7.99;65.46;102349.78;4990350;28;20057;-64
2023/02/13 06:44:48;;;;;;;8.67;5.27;;;;;;;7.88;65.30;102342.38;4990049;28;20058;-63
2023/02/13 06:47:16;;;;;;;7.35;5.22;;;;;;;7.82;66.31;102344.22;4990950;28;20069;-63
2023/02/13 06:49:43;;;;;;;6.93;4.85;;;;;;;7.78;66.03;102350.50;4989715;28;20058;-63
2023/02/13 06:52:10;;;;;;;7.22;5.13;;;;;;;7.69;66.28;102342.59;4991273;28;20486;-64
2023/02/13 06:54:37;;;;;;;7.80;5.10;;;;;;;7.67;65.78;102342.00;4995737;28;20494;-63
2023/02/13 06:57:05;;;;;;;7.45;5.50;;;;;;;7.58;66.05;102340.72;4995943;28;20054;-63
2023/02/13 06:59:33;;;;;;;8.65;5.82;;;;;;;7.52;66.81;102341.72;4995122;28;20046;-63
2023/02/13 07:02:01;;;;;;;9.48;5.82;;;;;;;7.52;65.43;102336.19;4998281;28;20053;-63
2023/02/13 07:04:28;;;;;;;10.27;6.10;;;;;;;7.48;66.80;102346.06;4994911;28;20055;-63
2023/02/13 07:06:55;;;;;;;10.75;6.90;;;;;;;7.43;66.21;102348.72;4995022;28;20510;-64
2023/02/13 07:09:23;;;;;;;10.07;6.00;;;;;;;7.32;66.87;102354.06;4995808;28;20057;-63
2023/02/13 07:11:50;;;;;;;10.00;5.90;;;;;;;7.30;67.15;102361.78;4995283;28;20402;-63
2023/02/13 07:14:17;;;;;;;9.02;6.03;;;;;;;7.56;65.62;102356.78;4998883;28;20529;-61
2023/02/13 07:16:46;;;;;;;10.93;6.65;;;;;;;7.70;65.53;102352.59;4993958;28;20069;-62
2023/02/13 07:19:13;;;;;;;11.68;6.75;;;;;;;7.81;65.24;102355.53;4998798;28;20050;-61
2023/02/13 07:21:41;;;;;;;9.27;6.15;;;;;;;8.22;65.28;102356.28;4985884;28;20388;-61
2023/02/13 07:24:08;;;;;;;8.68;5.07;;;;;;;9.41;62.43;102357.72;4976285;28;20085;-61
2023/02/13 07:26:35;;;;;;;7.60;5.60;;;;;;;10.63;59.56;102356.34;4987488;28;20070;-61
2023/02/13 07:29:04;;;;;;;9.88;5.15;;;;;;;11.61;56.27;102352.03;4995695;28;20050;-61
2023/02/13 07:31:33;;;;;;;7.70;4.60;;;;;;;12.38;54.18;102351.03;4995820;28;20057;-61
2023/02/13 07:34:02;;;;;;;6.07;4.45;;;;;;;12.74;51.94;102347.34;4995665;28;20054;-61
2023/02/13 07:36:29;;;;;;;8.32;5.03;;;;;;;12.98;50.23;102359.59;4993875;28;20042;-61
2023/02/13 07:38:56;;;;;;;7.65;5.55;;;;;;;13.49;48.69;102354.94;4995833;28;20054;-61
2023/02/13 07:41:25;;;;;;;15.60;5.53;;;;;;;13.78;48.11;102363.44;4995758;28;20054;-60
2023/02/13 07:43:53;;;;;;;7.35;4.85;;;;;;;13.59;48.22;102354.88;4995126;28;20057;-51
2023/02/13 07:46:20;;;;;;;6.38;4.82;;;;;;;13.54;47.25;102364.16;4989711;28;20423;-50
2023/02/13 07:48:47;;;;;;;6.15;4.13;;;;;;;14.95;46.41;102357.94;4983337;28;20054;-59
2023/02/13 07:51:16;;;;;;;7.18;4.10;;;;;;;16.20;43.84;102354.81;4989012;28;20089;-59
2023/02/13 07:53:43;;;;;;;6.97;4.53;;;;;;;17.20;41.92;102359.22;4989542;28;20055;-60
2023/02/13 07:56:11;;;;;;;5.05;4.13;;;;;;;18.11;39.52;102354.66;4990750;28;20058;-58
2023/02/13 07:58:39;;;;;;;8.73;5.35;;;;;;;19.21;37.38;102353.09;4990008;28;20061;-60
2023/02/13 08:01:08;;;;;;;7.20;4.25;;;;;;;19.93;36.15;102350.91;4989277;28;20058;-59
2023/02/13 08:03:35;;;;;;;5.88;4.78;;;;;;;20.62;34.87;102350.03;4988374;28;20055;-59
2023/02/13 08:06:03;;;;;;;5.35;4.15;;;;;;;21.69;33.26;102351.69;4987776;28;20069;-59
2023/02/13 08:08:31;;;;;;;5.30;4.35;;;;;;;21.80;32.76;102354.13;4989298;28;20056;-58
2023/02/13 08:13:50;;;;;;;5.47;3.95;;;;;;;23.38;30.30;102346.41;4995635;28;20513;-59
2023/02/13 08:16:17;;;;;;;5.15;4.32;;;;;;;23.93;28.94;102363.16;4989295;28;20054;-58
2023/02/13 08:18:44;;;;;;;6.43;4.20;;;;;;;24.60;28.57;102350.06;4989204;28;20069;-59
2023/02/13 08:21:13;;;;;;;5.25;4.15;;;;;;;25.46;27.37;102349.41;4987633;28;20061;-64
2023/02/13 08:23:42;;;;;;;5.32;4.10;;;;;;;25.90;26.99;102352.06;4986400;28;20406;-65
2023/02/13 08:26:09;;;;;;;5.68;4.70;;;;;;;26.30;26.48;102344.31;4986164;28;20069;-65
2023/02/13 08:28:37;;;;;;;5.65;4.70;;;;;;;26.93;25.76;102343.06;4989443;28;20061;-64
2023/02/13 08:31:10;;;;;;;5.50;4.63;;;;;;;27.65;24.64;102347.88;4988884;28;20082;-66
2023/02/13 08:33:40;;;;;;;7.15;6.00;;;;;;;28.66;23.60;102349.97;4988427;28;20061;-64
2023/02/13 08:36:08;;;;;;;7.82;5.13;;;;;;;29.04;23.14;102350.75;4987617;28;20054;-63
2023/02/13 08:38:35;;;;;;;6.55;5.85;;;;;;;29.35;22.45;102351.41;4989132;28;20054;-58
2023/02/13 08:41:04;;;;;;;6.63;5.80;;;;;;;29.49;22.97;102340.03;4988906;28;20062;-58
2023/02/13 08:43:31;;;;;;;5.80;5.05;;;;;;;29.75;22.99;102349.66;4988957;28;20403;-64
2023/02/13 08:45:58;;;;;;;6.07;5.45;;;;;;;30.37;21.85;102351.56;4989008;28;20054;-64
2023/02/13 08:48:25;;;;;;;5.90;5.30;;;;;;;31.38;20.94;102346.72;4988761;28;20057;-64
2023/02/13 08:50:53;;;;;;;6.78;5.63;;;;;;;32.24;19.98;102349.38;4987638;28;20065;-64
2023/02/13 08:53:20;;;;;;;7.10;6.40;;;;;;;32.39;20.26;102340.63;4988563;28;20058;-64
2023/02/13 08:55:52;;;;;;;6.53;5.97;;;;;;;33.30;19.11;102336.66;4987518;28;20173;-64
2023/02/13 08:58:21;;;;;;;6.15;5.65;;;;;;;33.21;18.90;102342.91;4987394;28;20434;-65
2023/02/13 09:00:48;;;;;;;6.15;5.55;;;;;;;33.80;18.74;102338.19;4987950;28;20054;-65
2023/02/13 09:03:16;;;;;;;6.05;5.18;;;;;;;34.04;18.43;102330.44;4987354;28;20049;-65
2023/02/13 09:05:43;;;;;;;6.53;5.93;;;;;;;34.87;17.73;102332.97;4983256;28;20058;-63
2023/02/13 09:08:14;;;;;;;5.80;5.20;;;;;;;34.55;18.11;102329.31;4988214;28;20515;-65
2023/02/13 09:10:43;;;;;;;5.93;5.43;;;;;;;35.43;17.39;102327.44;4987318;28;20057;-62
2023/02/13 09:13:10;;;;;;;5.68;5.18;;;;;;;35.47;17.14;102319.50;4987634;28;20050;-66
2023/02/13 09:15:40;;;;;;;5.40;4.90;;;;;;;35.62;17.10;102325.81;4985243;28;20054;-65
2023/02/13 09:18:07;;;;;;;5.55;5.05;;;;;;;35.82;17.12;102325.03;4987774;28;20070;-65
2023/02/13 09:20:35;;;;;;;5.32;4.82;;;;;;;36.26;16.95;102323.66;4984313;28;20058;-39
2023/02/13 09:23:02;;;;;;;5.80;5.25;;;;;;;36.16;18.82;102321.81;4987900;28;20081;-39
2023/02/13 09:25:29;;;;;;;5.93;5.32;;;;;;;36.45;16.21;102321.16;4983915;28;20058;-65
2023/02/13 09:27:57;;;;;;;5.78;5.28;;;;;;;37.55;15.74;102317.47;4987272;28;20475;-65
2023/02/13 09:30:24;;;;;;;5.70;5.15;;;;;;;37.87;15.23;102309.91;4986677;28;20594;-65
2023/02/13 09:32:54;;;;;;;5.20;4.75;;;;;;;38.00;15.08;102312.03;4987761;28;20054;-64
2023/02/13 09:35:27;;;;;;;5.88;5.30;;;;;;;38.56;14.82;102308.63;4986655;28;20061;-61
2023/02/13 09:37:55;;;;;;;5.68;5.05;;;;;;;38.85;14.50;102313.44;4986818;28;20061;-60
2023/02/13 09:40:28;;;;;;;5.90;5.40;;;;;;;39.37;14.18;102312.88;4986307;28;20054;-60
2023/02/13 09:43:14;;;;;;;5.97;5.47;;;;;;;39.36;14.06;102314.16;4991015;28;20060;-64
2023/02/13 09:45:43;;;;;;;5.57;5.00;;;;;;;39.85;13.63;102315.69;4985629;28;20050;-62
2023/02/13 09:48:18;;;;;;;5.32;4.82;;;;;;;39.66;13.95;102308.88;4987501;28;20065;-60
2023/02/13 09:50:46;;;;;;;6.80;6.10;;;;;;;39.53;14.00;102317.72;4982654;28;20080;-61
2023/02/13 09:53:21;;;;;;;5.43;4.93;;;;;;;39.84;13.99;102319.03;4985455;28;20057;-62
2023/02/13 09:55:58;;;;;;;5.07;4.57;;;;;;;40.30;13.63;102310.59;4987391;28;20061;-60
2023/02/13 09:58:38;;;;;;;5.43;4.93;;;;;;;40.90;12.94;102318.13;4987052;28;20069;-60
2023/02/13 10:01:23;;;;;;;5.03;4.53;;;;;;;41.42;12.51;102312.53;4982486;28;20054;-60
2023/02/13 10:04:09;;;;;;;5.47;4.97;;;;;;;41.94;12.15;102308.41;4987051;28;20395;-65
2023/02/13 10:06:48;;;;;;;6.28;5.50;;;;;;;41.85;12.16;102308.41;4985179;28;20058;-66
2023/02/13 10:09:27;;;;;;;5.57;5.07;;;;;;;42.32;12.30;102315.75;4986688;28;20062;-63
2023/02/13 10:12:40;;;;;;;6.15;5.65;;;;;;;42.62;11.91;102309.31;4984569;28;20054;-65
2023/02/13 10:15:21;;;;;;;5.60;5.10;;;;;;;43.17;11.48;102312.66;4987500;28;20050;-66
2023/02/13 10:17:58;;;;;;;6.35;5.75;;;;;;;42.61;12.00;102307.66;4985003;28;20058;-66
2023/02/13 10:20:33;;;;;;;5.50;5.00;;;;;;;42.57;11.63;102305.75;4984033;28;20119;-65
2023/02/13 10:23:12;;;;;;;5.97;5.47;;;;;;;42.75;11.63;102312.78;4986017;28;20418;-66
2023/02/13 10:25:46;;;;;;;6.25;5.75;;;;;;;43.39;11.01;102308.63;4986976;28;20055;-66
2023/02/13 10:28:17;;;;;;;5.90;5.40;;;;;;;43.66;11.17;102310.50;4988570;28;20136;-63
2023/02/13 10:30:55;;;;;;;6.25;5.65;;;;;;;43.94;11.01;102316.09;4987903;28;20062;-64
2023/02/13 10:33:28;;;;;;;7.05;6.35;;;;;;;43.46;11.23;102311.16;4990502;28;20054;-65
2023/02/13 10:36:02;;;;;;;5.63;5.13;;;;;;;43.87;11.02;102311.44;4990978;28;20367;-64
2023/02/13 10:38:32;;;;;;;6.30;5.70;;;;;;;43.70;11.31;102304.41;4990591;28;20058;-66
2023/02/13 10:41:23;;;;;;;5.82;5.32;;;;;;;44.30;10.68;102306.03;4989897;28;20050;-66
2023/02/13 10:44:06;;;;;;;6.50;5.82;;;;;;;44.94;10.19;102303.50;4991894;28;20108;-66
2023/02/13 10:46:43;;;;;;;6.82;5.70;;;;;;;44.61;10.57;102297.97;4989603;28;20062;-67
2023/02/13 10:49:33;;;;;;;8.20;6.43;;;;;;;45.15;10.42;102296.31;4988406;28;20069;-66
2023/02/13 10:52:15;;;;;;;6.50;5.78;;;;;;;45.37;10.24;102298.72;4988834;28;20162;-65
2023/02/13 10:55:02;;;;;;;6.78;6.05;;;;;;;45.91;9.89;102295.28;4993847;28;20053;-64
2023/02/13 10:57:46;;;;;;;6.13;5.43;;;;;;;46.28;9.57;102293.72;4988734;28;20050;-60
2023/02/13 11:00:19;;;;;;;6.55;5.90;;;;;;;46.22;11.12;102284.81;4988776;28;20059;-57
2023/02/13 11:02:49;;;;;;;6.25;5.75;;;;;;;46.30;9.74;102279.25;4988148;28;20054;-51
2023/02/13 11:05:18;;;;;;;6.97;6.35;;;;;;;45.82;9.73;102282.88;4989500;28;20514;-65
2023/02/13 11:07:50;;;;;;;6.30;5.70;;;;;;;46.24;9.52;102282.16;4988579;28;20058;-65
2023/02/13 11:10:20;;;;;;;6.43;5.82;;;;;;;45.96;9.82;102279.78;4987106;28;20053;-65
2023/02/13 11:12:48;;;;;;;8.43;7.22;;;;;;;46.45;9.47;102265.16;4988709;28;20058;-66
2023/02/13 11:15:22;;;;;;;6.25;5.75;;;;;;;46.93;9.38;102275.34;4989392;28;20055;-63
2023/02/13 11:17:51;;;;;;;7.13;6.22;;;;;;;47.08;9.15;102267.09;4988179;28;20062;-61
2023/02/13 11:20:40;;;;;;;7.15;6.40;;;;;;;46.88;9.53;102270.25;4988786;28;20058;-61
2023/02/13 11:23:21;;;;;;;7.03;6.32;;;;;;;46.44;9.46;102265.72;4989161;28;20068;-61
2023/02/13 11:25:57;;;;;;;5.72;5.07;;;;;;;46.30;9.47;102262.38;4988832;28;20054;-61
2023/02/13 11:28:27;;;;;;;6.50;5.90;;;;;;;46.53;9.39;102260.41;4990006;28;20050;-65
2023/02/13 11:31:10;;;;;;;6.45;5.82;;;;;;;47.02;9.12;102257.44;4989402;28;20065;-66
2023/02/13 11:34:22;;;;;;;6.68;6.07;;;;;;;46.97;9.16;102256.06;4995733;28;20050;-64
2023/02/13 11:36:52;;;;;;;7.10;6.28;;;;;;;47.31;8.93;102258.34;4988851;28;20073;-60
2023/02/13 11:39:24;;;;;;;5.88;5.38;;;;;;;47.76;8.84;102252.50;4986222;28;20135;-60
2023/02/13 11:41:52;;;;;;;6.40;5.80;;;;;;;47.55;8.84;102246.84;4990609;28;20070;-61
2023/02/13 11:44:25;;;;;;;8.55;5.55;;;;;;;47.99;8.65;102247.44;4986015;28;20053;-61
2023/02/13 11:46:54;;;;;;;5.93;5.40;;;;;;;48.08;8.67;102246.34;4987662;28;20410;-60
2023/02/13 11:49:24;;;;;;;6.18;5.50;;;;;;;47.68;8.91;102239.63;4986099;28;20057;-61
2023/02/13 11:51:54;;;;;;;5.75;5.13;;;;;;;48.43;8.53;102236.03;4984383;28;20074;-60
2023/02/13 11:54:30;;;;;;;5.22;4.75;;;;;;;48.63;8.40;102244.59;4985781;28;20050;-61
2023/02/13 11:56:59;;;;;;;5.72;5.13;;;;;;;48.78;7.95;102245.06;4985493;28;20058;-61
2023/02/13 11:59:31;;;;;;;6.28;5.00;;;;;;;48.23;8.64;102235.00;4987666;28;20422;-60
2023/02/13 12:02:14;;;;;;;7.90;5.80;;;;;;;48.14;8.35;102232.34;4987413;28;20058;-62
2023/02/13 12:04:41;;;;;;;7.05;5.30;;;;;;;48.03;8.71;102232.34;4988564;28;20511;-61
2023/02/13 12:07:19;;;;;;;6.05;5.38;;;;;;;48.70;8.57;102232.22;4988927;28;20059;-60
2023/02/13 12:09:50;;;;;;;;;;;;;;;48.24;8.49;102218.06;4981408;28;20058;-60
2023/02/13 12:12:22;;;;;;;6.07;5.47;;;;;;;48.21;8.43;102219.97;4985280;28;19922;-60
2023/02/13 12:14:50;;;;;;;6.85;6.22;;;;;;;48.08;8.55;102217.56;4987632;28;20054;-60
2023/02/13 12:17:22;;;;;;;5.78;5.28;;;;;;;48.37;8.50;102218.34;4987329;28;20058;-61
2023/02/13 12:19:51;;;;;;;6.10;5.50;;;;;;;48.50;8.15;102220.72;4987781;28;20054;-60
2023/02/13 12:22:30;;;;;;;5.25;4.85;;;;;;;48.45;8.47;102218.56;4987432;28;20054;-57
2023/02/13 12:25:31;;;;;;;5.93;5.43;;;;;;;48.06;8.40;102199.59;4987220;28;20065;-60
2023/02/13 12:28:12;;;;;;;7.28;6.68;;;;;;;47.86;9.19;102197.72;4984720;28;20054;-53
2023/02/13 12:31:07;;;;;;;10.15;9.45;;;;;;;48.30;8.70;102193.13;4987850;28;20053;-60